Flight Track Log - Related Links

Times and Time Zones

All times are in EDT time to prevent confusion due to time zone crossing. See the SWA2068 flight status page for this flight to view local times or setup timezone preferences in your user account.

Time Position Orientation Groundspeed Altitude Reporting Facility
EDT Latitude Longitude Course Direction KTS MPH feet Rate Location/Type
Fri 07:51:06 PM 32.8667 -96.8667 320° Northwest 144 166 1,700  Level Dallas / Fort Worth TRACON
Fri 07:51:36 PM 32.8833 -96.8833 320° Northwest 196 226 2,500 2,717 Climbing Dallas / Fort Worth TRACON
Fri 07:53:45 PM 32.8786 -97.0275 268° West 206 237 8,900 2,603 Climbing Fort Worth Center
Fri 07:54:45 PM 32.7931 -97.0478 191° South 232 267 10,700 1,800 Climbing Fort Worth Center
Fri 07:55:45 PM 32.6889 -97.0531 182° South 310 357 12,500 2,500 Climbing Fort Worth Center
Fri 07:56:45 PM 32.5761 -97.0533 180° South 380 437 15,700 2,800 Climbing Fort Worth Center
Fri 07:57:45 PM 32.4633 -97.0564 181° South 408 470 18,100 2,200 Climbing Fort Worth Center
Fri 07:58:45 PM 32.3444 -97.0592 181° South 421 484 20,100 1,700 Climbing Fort Worth Center
Fri 07:59:45 PM 32.2506 -97.0622 182° South 421 484 21,500 1,600 Climbing Fort Worth Center
Fri 08:00:45 PM 32.1169 -97.0675 182° South 426 490 23,300 1,500 Climbing Fort Worth Center
Fri 08:01:45 PM 31.9917 -97.0706 181° South 437 503 24,500 1,390 Climbing Fort Worth Center
Fri 08:03:29 PM 31.7594 -97.0756 181° South 472 543 27,100 1,418 Climbing Houston Center
Fri 08:04:30 PM 31.6272 -97.0789 181° South 470 541 28,400 1,415 Climbing Houston Center
Fri 08:05:32 PM 31.4969 -97.0928 185° South 467 537 30,000 774 Climbing Houston Center
Fri 08:06:34 PM 31.3797 -97.1419 200° South 445 512 30,000  Level Houston Center
Fri 08:07:36 PM 31.2614 -97.1883 199° South 445 512 30,000  Level Houston Center
Fri 08:08:38 PM 31.1219 -97.2442 199° South 448 516 30,000  Level Houston Center
Fri 08:09:40 PM 31.0019 -97.2917 199° South 453 521 30,000 -48 Level Houston Center
Fri 08:10:42 PM 30.8756 -97.3392 198° South 461 531 29,900  Descending Houston Center
Fri 08:11:44 PM 30.7594 -97.3833 198° South 468 539 30,000 48 Climbing Houston Center
Fri 08:12:46 PM 30.6167 -97.4392 199° South 461 531 30,000 -98 Level Houston Center
Fri 08:13:47 PM 30.4936 -97.4869 198° South 462 532 29,800 -1,415 Descending Houston Center
Fri 08:14:49 PM 30.3747 -97.5322 198° South 451 519 27,100 -3,048 Descending Houston Center
Fri 08:15:51 PM 30.2725 -97.6025 211° Southwest 424 488 23,500 -3,145 Descending Houston Center
Fri 08:16:53 PM 30.1711 -97.6753 212° Southwest 423 487 20,600 -2,826 Descending Houston Center
Fri 08:17:52 PM 30.0761 -97.7400 211° Southwest 388 447 17,800 -2,903 Descending Houston Center
Fri 08:17:55 PM 30.0681 -97.7442 204° Southwest 391 450 17,600 -2,585 Descending Houston Center
Fri 08:18:57 PM 29.9803 -97.8053 211° Southwest 371 427 15,000 -2,447 Descending Houston Center
Fri 08:19:11 PM 29.9617 -97.8175 210° Southwest 360 414 14,500 -1,935 Descending Houston Center
Fri 08:19:59 PM 29.8931 -97.8694 213° Southwest 349 402 13,000 -1,500 Descending Houston Center
Fri 08:20:11 PM 29.8883 -97.8847 250° West 337 388 13,000 -968 Level Houston Center
Fri 08:21:01 PM 29.8547 -97.9639 244° Southwest 323 372 12,000 -1,180 Descending Houston Center
Fri 08:21:12 PM 29.8472 -97.9814 244° Southwest 304 350 11,800 -1,355 Descending Houston Center
Fri 08:22:03 PM 29.7964 -98.0317 221° Southwest 291 335 10,600 -1,545 Descending Houston Center
Fri 08:22:18 PM 29.7817 -98.0428 213° Southwest 281 323 10,100 -1,839 Descending Houston Center
Fri 08:23:05 PM 29.7275 -98.0778 209° Southwest 287 330 8,700 -1,837 Descending Houston Center
Fri 08:23:07 PM 29.7222 -98.0814 211° Southwest 285 328 8,600 -1,452 Descending Houston Center
Fri 08:24:07 PM 29.6606 -98.1261 212° Southwest 284 327 7,200 -1,475 Descending Houston Center
Fri 08:24:08 PM 29.6556 -98.1306 218° Southwest 284 327 7,100 -1,075 Descending Houston Center
Fri 08:25:14 PM 29.5844 -98.1803 211° Southwest 275 316 6,000 -793 Descending Houston Center
Fri 08:26:09 PM 29.5253 -98.2211 211° Southwest 273 314 5,500 -536 Descending Houston Center
Fri 08:26:10 PM 29.5253 -98.2219 270° West 274 315 5,500 -1,524 Level Houston Center
Fri 08:27:12 PM 29.4653 -98.2714 216° Southwest 266 306 3,900 -1,250 Descending Houston Center
Fri 08:28:10 PM 29.4444 -98.3439 252° West 220 253 3,000 -871 Descending Houston Center
Fri 08:28:14 PM 29.4461 -98.3486 292° West 225 259 3,000 -590 Level Houston Center
Fri 08:29:11 PM 29.4675 -98.3889 301° West 151 174 2,400 -581 Descending Houston Center
Fri 08:29:16 PM 29.4700 -98.3919 313° West 164 189 2,400 -778 Level Houston Center
Fri 08:30:05 PM 29.4936 -98.4217 312° West 146 168 1,700 -774 Descending Houston Center
Fri 08:30:18 PM 29.5003 -98.4294 315° West 147 169 1,600 -537 Descending Houston Center
Fri 08:31:12 PM 29.5178 -98.4550 308° West 122 140 1,100 -581 Descending Houston Center
Fri 08:31:20 PM 29.5228 -98.4589 326° Northwest 127 146 1,000 -750 Descending Houston Center

Login

Don't have an account? Register now (free) for customized features, flight alerts, and more!